createdAt,value
2017-11-23T00:00:20.671Z,8.00
2017-11-23T00:02:48.141Z,8.00
2017-11-23T00:05:15.690Z,8.00
2017-11-23T00:07:43.160Z,8.00
2017-11-23T00:10:10.663Z,8.00
2017-11-23T00:12:38.166Z,8.00
2017-11-23T00:15:05.641Z,8.00
2017-11-23T00:17:33.300Z,8.00
2017-11-23T00:20:00.785Z,8.00
2017-11-23T00:22:28.281Z,7.90
2017-11-23T00:24:55.779Z,7.90
2017-11-23T00:27:23.289Z,7.90
2017-11-23T00:29:50.799Z,7.90
2017-11-23T00:32:18.270Z,7.90
2017-11-23T00:34:45.762Z,7.80
2017-11-23T00:37:13.233Z,7.80
2017-11-23T00:39:40.728Z,7.80
2017-11-23T00:42:08.256Z,7.80
2017-11-23T00:44:36.497Z,7.90
2017-11-23T00:47:04.015Z,7.90
2017-11-23T00:49:31.503Z,7.90
2017-11-23T00:51:59.758Z,7.90
2017-11-23T00:54:27.256Z,7.90
2017-11-23T00:56:54.780Z,7.90
2017-11-23T00:59:22.279Z,7.90
2017-11-23T01:01:50.529Z,7.90
2017-11-23T01:04:18.007Z,7.80
2017-11-23T01:06:45.480Z,7.80
2017-11-23T01:09:12.989Z,7.70
2017-11-23T01:11:40.454Z,7.70
2017-11-23T01:14:07.936Z,7.70
2017-11-23T01:16:35.429Z,7.70
2017-11-23T01:19:02.904Z,7.70
2017-11-23T01:21:31.232Z,7.70
2017-11-23T01:23:58.693Z,7.70
2017-11-23T01:26:26.930Z,7.40
2017-11-23T01:28:54.418Z,7.60
2017-11-23T01:31:21.899Z,7.60
2017-11-23T01:33:49.400Z,7.50
2017-11-23T01:36:16.866Z,7.50
2017-11-23T01:38:44.359Z,7.50
2017-11-23T01:41:11.847Z,7.40
2017-11-23T01:43:39.317Z,7.40
2017-11-23T01:46:06.871Z,7.40
2017-11-23T01:48:34.384Z,7.30
2017-11-23T01:51:01.877Z,7.30
2017-11-23T01:53:29.369Z,7.30
2017-11-23T01:55:56.842Z,7.20
2017-11-23T01:58:24.349Z,7.20
2017-11-23T02:00:51.857Z,7.20
2017-11-23T02:03:19.323Z,7.10
2017-11-23T02:05:46.793Z,7.10
2017-11-23T02:08:15.023Z,6.90
2017-11-23T02:10:42.520Z,6.90
2017-11-23T02:13:10.129Z,6.90
2017-11-23T02:15:37.805Z,6.90
2017-11-23T02:18:06.052Z,6.80
2017-11-23T02:20:35.010Z,6.80
2017-11-23T02:23:02.470Z,6.80
2017-11-23T02:25:29.965Z,6.70
2017-11-23T02:27:57.496Z,6.70
2017-11-23T02:30:26.495Z,6.50
2017-11-23T02:32:54.010Z,6.50
2017-11-23T02:35:21.475Z,6.50
2017-11-23T02:37:49.699Z,6.60
2017-11-23T02:40:17.949Z,6.40
2017-11-23T02:42:45.428Z,6.40
2017-11-23T02:45:12.937Z,6.40
2017-11-23T02:47:40.417Z,6.30
2017-11-23T02:50:07.906Z,6.20
2017-11-23T02:52:35.377Z,6.20
2017-11-23T02:55:03.661Z,6.20
2017-11-23T02:57:31.144Z,6.10
2017-11-23T02:59:58.614Z,6.20
2017-11-23T03:02:26.237Z,6.00
2017-11-23T03:04:53.689Z,6.10
2017-11-23T03:07:21.165Z,6.00
2017-11-23T03:09:49.406Z,6.10
2017-11-23T03:12:16.890Z,6.10
2017-11-23T03:14:45.145Z,6.10
2017-11-23T03:17:12.613Z,6.10
2017-11-23T03:19:40.198Z,6.10
2017-11-23T03:22:07.683Z,6.20
2017-11-23T03:24:35.140Z,6.20
2017-11-23T03:27:02.627Z,6.40
2017-11-23T03:29:30.084Z,6.20
2017-11-23T03:31:58.330Z,6.20
2017-11-23T03:34:27.239Z,6.20
2017-11-23T03:36:54.720Z,6.20
2017-11-23T03:39:22.998Z,6.10
2017-11-23T03:41:50.510Z,6.10
2017-11-23T03:44:18.900Z,6.10
2017-11-23T03:46:46.363Z,6.10
2017-11-23T03:49:13.825Z,5.90
2017-11-23T03:51:41.329Z,6.10
2017-11-23T03:54:08.799Z,6.00
2017-11-23T03:56:36.288Z,6.00
2017-11-23T03:59:04.504Z,5.90
2017-11-23T04:01:32.899Z,5.90
2017-11-23T04:04:00.366Z,5.90
2017-11-23T04:06:27.843Z,5.90
2017-11-23T04:08:55.339Z,5.80
2017-11-23T04:11:22.920Z,5.80
2017-11-23T04:13:50.403Z,5.80
2017-11-23T04:16:17.889Z,5.70
2017-11-23T04:18:45.520Z,5.70
2017-11-23T04:21:13.841Z,5.70
2017-11-23T04:23:41.380Z,5.60
2017-11-23T04:26:08.866Z,5.60
2017-11-23T04:28:37.104Z,5.50
2017-11-23T04:31:04.623Z,5.50
2017-11-23T04:33:32.270Z,5.50
2017-11-23T04:35:59.750Z,5.50
2017-11-23T04:38:27.980Z,5.50
2017-11-23T04:40:56.225Z,5.40
2017-11-23T04:43:23.696Z,5.40
2017-11-23T04:45:51.243Z,5.50
2017-11-23T04:48:18.730Z,5.40
2017-11-23T04:50:46.957Z,5.40
2017-11-23T04:53:21.070Z,5.40
2017-11-23T04:55:48.523Z,5.40
2017-11-23T04:58:16.010Z,5.30
2017-11-23T05:00:43.480Z,5.30
2017-11-23T05:03:11.734Z,5.30
2017-11-23T05:05:39.229Z,5.40
2017-11-23T05:08:07.459Z,5.40
2017-11-23T05:10:35.698Z,5.30
2017-11-23T05:13:03.240Z,5.30
2017-11-23T05:15:31.520Z,5.30
2017-11-23T05:17:58.979Z,5.30
2017-11-23T05:20:27.221Z,5.30
2017-11-23T05:22:54.709Z,5.30
2017-11-23T05:25:22.202Z,5.30
2017-11-23T05:27:57.276Z,5.30
2017-11-23T05:30:25.554Z,5.20
2017-11-23T05:32:53.092Z,5.30
2017-11-23T05:35:20.567Z,5.30
2017-11-23T05:37:48.045Z,5.30
2017-11-23T05:40:15.545Z,5.30
2017-11-23T05:42:43.012Z,5.30
2017-11-23T05:45:10.883Z,5.40
2017-11-23T05:47:39.412Z,5.40
2017-11-23T05:50:07.672Z,5.50
2017-11-23T05:52:35.139Z,5.40
2017-11-23T05:55:02.658Z,5.50
2017-11-23T05:57:30.135Z,5.50
2017-11-23T05:59:58.770Z,5.50
2017-11-23T06:02:26.297Z,5.50
2017-11-23T06:04:53.905Z,5.50
2017-11-23T06:07:21.407Z,5.60
2017-11-23T06:09:49.655Z,5.60
2017-11-23T06:12:17.935Z,5.70
2017-11-23T06:14:45.489Z,5.70
2017-11-23T06:17:13.118Z,5.70
2017-11-23T06:19:41.380Z,5.80
2017-11-23T06:22:08.866Z,5.80
2017-11-23T06:24:36.345Z,5.80
2017-11-23T06:27:03.920Z,5.90
2017-11-23T06:29:32.284Z,5.80
2017-11-23T06:31:59.793Z,5.90
2017-11-23T06:34:27.301Z,5.90
2017-11-23T06:36:54.822Z,6.00
2017-11-23T06:39:22.305Z,6.00
2017-11-23T06:41:49.804Z,6.00
2017-11-23T06:44:17.310Z,6.10
2017-11-23T06:46:44.812Z,6.10
2017-11-23T06:49:13.034Z,6.30
2017-11-23T06:51:40.560Z,6.20
2017-11-23T06:54:08.107Z,6.30
2017-11-23T06:56:35.607Z,6.10
2017-11-23T06:59:03.082Z,6.40
2017-11-23T07:01:30.566Z,6.40
2017-11-23T07:03:58.849Z,6.50
2017-11-23T07:06:26.357Z,6.50
2017-11-23T07:08:53.829Z,6.60
2017-11-23T07:11:21.402Z,6.70
2017-11-23T07:13:49.662Z,6.90
2017-11-23T07:16:17.134Z,6.90
2017-11-23T07:18:44.641Z,7.10
2017-11-23T07:21:12.185Z,7.30
2017-11-23T07:23:39.668Z,7.80
2017-11-23T07:26:07.930Z,8.70
2017-11-23T07:28:35.466Z,8.70
2017-11-23T07:31:02.945Z,8.90
2017-11-23T07:33:30.604Z,8.90
2017-11-23T07:35:58.151Z,9.20
2017-11-23T07:38:25.662Z,9.50
2017-11-23T07:40:53.141Z,9.60
2017-11-23T07:43:20.660Z,9.60
2017-11-23T07:45:48.912Z,10.30
2017-11-23T07:48:16.641Z,10.30
2017-11-23T07:50:44.133Z,10.80
2017-11-23T07:53:11.611Z,11.00
2017-11-23T07:55:39.869Z,11.40
2017-11-23T07:58:07.349Z,11.20
2017-11-23T08:00:35.643Z,11.60
2017-11-23T08:03:03.907Z,11.70
2017-11-23T08:05:31.394Z,11.70
2017-11-23T08:07:59.795Z,11.80
2017-11-23T08:10:27.294Z,11.80
2017-11-23T08:12:54.788Z,12.10
2017-11-23T08:15:22.468Z,12.40
2017-11-23T08:17:49.964Z,12.70
2017-11-23T08:20:17.444Z,13.00
2017-11-23T08:22:44.944Z,13.30
2017-11-23T08:25:13.215Z,13.80
2017-11-23T08:27:40.708Z,13.80
2017-11-23T08:30:08.981Z,13.90
2017-11-23T08:32:37.436Z,14.00
2017-11-23T08:35:04.963Z,14.00
2017-11-23T08:37:33.244Z,14.10
2017-11-23T08:40:00.711Z,14.10
2017-11-23T08:42:28.166Z,14.20
2017-11-23T08:44:55.716Z,14.30
2017-11-23T08:47:23.967Z,14.80
2017-11-23T08:49:51.463Z,14.80
2017-11-23T08:52:19.869Z,15.10
2017-11-23T08:54:53.068Z,15.30
2017-11-23T08:57:20.606Z,15.50
2017-11-23T08:59:48.202Z,15.60
2017-11-23T09:02:15.831Z,15.70
2017-11-23T09:04:43.310Z,15.80
2017-11-23T09:07:10.774Z,15.80
2017-11-23T09:09:39.041Z,15.70
2017-11-23T09:12:12.199Z,15.70
2017-11-23T09:14:39.882Z,15.80
2017-11-23T09:17:07.400Z,16.00
2017-11-23T09:19:35.631Z,16.40
2017-11-23T09:22:03.121Z,16.40
2017-11-23T09:24:30.599Z,16.70
2017-11-23T09:26:58.083Z,17.00
2017-11-23T09:29:25.723Z,17.10
2017-11-23T09:31:53.200Z,17.30
2017-11-23T09:34:20.733Z,17.40
2017-11-23T09:36:48.208Z,17.40
2017-11-23T09:39:15.685Z,17.60
2017-11-23T09:41:43.202Z,17.80
2017-11-23T09:44:10.722Z,17.90
2017-11-23T09:46:38.277Z,17.90
2017-11-23T09:49:05.748Z,18.00
2017-11-23T09:51:34.055Z,18.60
2017-11-23T09:54:02.287Z,19.00
2017-11-23T09:56:30.528Z,19.30
2017-11-23T09:58:58.007Z,19.20
2017-11-23T10:01:25.507Z,19.50
2017-11-23T10:03:53.065Z,19.30
2017-11-23T10:06:20.574Z,19.30
2017-11-23T10:08:48.103Z,19.30
2017-11-23T10:11:16.371Z,18.90
2017-11-23T10:13:43.855Z,19.00
2017-11-23T10:16:11.358Z,19.00
2017-11-23T10:18:38.876Z,19.00
2017-11-23T10:21:06.355Z,19.20
2017-11-23T10:23:34.614Z,19.00
2017-11-23T10:26:02.113Z,19.00
2017-11-23T10:28:29.696Z,19.10
2017-11-23T10:30:57.209Z,18.90
2017-11-23T10:33:24.717Z,19.10
2017-11-23T10:35:53.028Z,19.20
2017-11-23T10:38:20.703Z,19.20
2017-11-23T10:40:48.970Z,19.10
2017-11-23T10:43:16.507Z,19.10
2017-11-23T10:45:44.753Z,19.00
2017-11-23T10:48:24.081Z,19.00
2017-11-23T10:50:51.587Z,18.90
2017-11-23T10:53:19.810Z,18.70
2017-11-23T10:55:47.397Z,18.70
2017-11-23T10:58:15.743Z,18.80
2017-11-23T11:00:43.235Z,18.70
2017-11-23T11:03:11.513Z,18.80
2017-11-23T11:05:39.007Z,18.80
2017-11-23T11:08:06.567Z,18.90
2017-11-23T11:10:34.128Z,19.00
2017-11-23T11:13:01.605Z,19.10
2017-11-23T11:15:29.877Z,18.70
2017-11-23T11:17:57.366Z,18.70
2017-11-23T11:20:24.993Z,18.70
2017-11-23T11:22:53.364Z,18.40
2017-11-23T11:25:21.896Z,18.50
2017-11-23T11:27:50.188Z,18.50
2017-11-23T11:30:17.801Z,18.50
2017-11-23T11:32:45.292Z,18.50
2017-11-23T11:35:12.810Z,18.40
2017-11-23T11:37:40.302Z,18.40
2017-11-23T11:40:07.851Z,18.30
2017-11-23T11:42:35.355Z,18.20
2017-11-23T11:45:03.585Z,18.20
2017-11-23T11:47:31.062Z,18.10
2017-11-23T11:49:58.547Z,17.90
2017-11-23T11:52:26.148Z,18.00
2017-11-23T11:54:53.871Z,18.10
2017-11-23T11:57:21.344Z,18.00
2017-11-23T11:59:48.875Z,17.80
2017-11-23T12:02:16.357Z,18.00
2017-11-23T12:04:43.894Z,17.90
2017-11-23T12:07:12.262Z,17.70
2017-11-23T12:09:39.886Z,17.70
2017-11-23T12:12:08.131Z,17.70
2017-11-23T12:14:36.338Z,17.70
2017-11-23T12:20:09.244Z,17.70
2017-11-23T12:25:52.322Z,17.70
2017-11-23T12:28:31.668Z,17.70
2017-11-23T12:31:00.097Z,17.70
2017-11-23T12:33:27.553Z,17.70
2017-11-23T12:35:55.112Z,17.70
2017-11-23T12:38:22.627Z,17.70
2017-11-23T12:40:50.181Z,17.60
2017-11-23T12:43:17.664Z,17.50
2017-11-23T12:45:45.162Z,17.30
2017-11-23T12:48:12.683Z,17.40
2017-11-23T12:50:40.199Z,17.40
2017-11-23T12:53:07.705Z,17.30
2017-11-23T12:55:36.041Z,17.30
2017-11-23T12:58:03.678Z,17.30
2017-11-23T13:00:31.180Z,17.40
2017-11-23T13:02:58.657Z,17.40
2017-11-23T13:05:26.132Z,17.30
2017-11-23T13:07:53.642Z,17.30
2017-11-23T13:10:21.144Z,17.30
2017-11-23T13:12:48.643Z,17.30
2017-11-23T13:15:16.134Z,17.30
2017-11-23T13:17:43.635Z,17.30
2017-11-23T13:20:11.925Z,17.20
2017-11-23T13:22:39.419Z,17.20
2017-11-23T13:25:06.904Z,17.20
2017-11-23T13:27:34.424Z,17.30
2017-11-23T13:30:02.712Z,17.20
2017-11-23T13:32:31.036Z,17.10
2017-11-23T13:34:59.354Z,17.00
2017-11-23T13:37:26.900Z,17.00
2017-11-23T13:39:54.496Z,17.00
2017-11-23T13:42:22.762Z,17.00
2017-11-23T13:44:50.245Z,16.90
2017-11-23T13:47:17.767Z,17.00
2017-11-23T13:49:45.332Z,17.00
2017-11-23T13:52:12.839Z,16.90
2017-11-23T13:54:40.331Z,16.90
2017-11-23T13:57:07.841Z,16.90
2017-11-23T13:59:35.344Z,16.90
2017-11-23T14:02:03.675Z,16.90
2017-11-23T14:04:31.154Z,16.90
2017-11-23T14:06:58.686Z,16.90
2017-11-23T14:09:26.164Z,16.80
2017-11-23T14:11:53.697Z,16.70
2017-11-23T14:14:22.031Z,16.60
2017-11-23T14:16:49.518Z,16.60
2017-11-23T14:19:17.026Z,16.60
2017-11-23T14:21:44.527Z,16.70
2017-11-23T14:24:12.029Z,16.70
2017-11-23T14:26:39.608Z,16.70
2017-11-23T14:29:07.889Z,16.70
2017-11-23T14:31:35.383Z,16.70
2017-11-23T14:34:03.085Z,16.50
2017-11-23T14:36:30.617Z,16.50
2017-11-23T14:38:58.932Z,16.50
2017-11-23T14:41:27.293Z,16.30
2017-11-23T14:43:54.927Z,16.30
2017-11-23T14:46:23.231Z,16.30
2017-11-23T14:48:50.726Z,16.20
2017-11-23T14:51:18.225Z,16.20
2017-11-23T14:53:46.496Z,16.00
2017-11-23T14:56:13.993Z,16.00
2017-11-23T14:58:41.533Z,15.90
2017-11-23T15:01:09.033Z,15.80
2017-11-23T15:03:36.510Z,15.80
2017-11-23T15:06:04.145Z,15.70
2017-11-23T15:08:31.684Z,15.60
2017-11-23T15:10:59.370Z,15.60
2017-11-23T15:13:26.865Z,15.50
2017-11-23T15:15:54.376Z,15.40
2017-11-23T15:18:24.203Z,15.30
2017-11-23T15:20:51.736Z,15.20
2017-11-23T15:23:19.990Z,15.20
2017-11-23T15:25:47.498Z,15.10
2017-11-23T15:28:15.128Z,15.00
2017-11-23T15:30:43.387Z,15.00
2017-11-23T15:33:10.953Z,15.00
2017-11-23T15:35:38.462Z,15.00
2017-11-23T15:38:06.012Z,14.90
2017-11-23T15:40:33.520Z,14.90
2017-11-23T15:43:01.025Z,14.90
2017-11-23T15:45:29.268Z,14.90
2017-11-23T15:47:57.545Z,15.00
2017-11-23T15:50:25.186Z,15.00
2017-11-23T15:52:52.719Z,15.00
2017-11-23T15:55:20.252Z,15.00
2017-11-23T15:57:47.743Z,15.10
2017-11-23T16:00:15.332Z,15.00
2017-11-23T16:02:42.842Z,15.00
2017-11-23T16:05:10.435Z,15.10
2017-11-23T16:07:37.951Z,15.10
2017-11-23T16:10:06.228Z,15.10
2017-11-23T16:12:33.934Z,15.10
2017-11-23T16:15:01.425Z,15.10
2017-11-23T16:17:29.073Z,15.10
2017-11-23T16:19:56.583Z,15.10
2017-11-23T16:22:24.090Z,15.10
2017-11-23T16:24:51.595Z,15.10
2017-11-23T16:27:19.113Z,15.10
2017-11-23T16:29:46.718Z,15.00
2017-11-23T16:32:15.118Z,14.90
2017-11-23T16:34:42.679Z,14.90
2017-11-23T16:40:21.130Z,14.80
2017-11-23T16:43:05.392Z,14.80
2017-11-23T16:45:38.437Z,14.70
2017-11-23T16:51:11.228Z,14.50
2017-11-23T16:53:55.473Z,14.40
2017-11-23T17:02:23.896Z,14.10
2017-11-23T17:04:57.155Z,14.10
2017-11-23T17:07:42.354Z,14.00
2017-11-23T17:10:16.302Z,14.00
2017-11-23T17:12:49.406Z,13.90
2017-11-23T17:15:22.278Z,13.90
2017-11-23T17:20:52.672Z,13.70
2017-11-23T17:23:20.970Z,13.50
2017-11-23T17:25:48.673Z,13.50
2017-11-23T17:28:16.157Z,13.60
2017-11-23T17:30:43.679Z,13.50
2017-11-23T17:33:11.200Z,13.50
2017-11-23T17:35:38.743Z,13.50
2017-11-23T17:38:07.198Z,13.40
2017-11-23T17:40:34.701Z,13.40
2017-11-23T17:43:02.280Z,13.40
2017-11-23T17:45:29.752Z,13.40
2017-11-23T17:47:57.284Z,13.30
2017-11-23T17:50:24.907Z,13.30
2017-11-23T17:52:53.277Z,13.10
2017-11-23T17:55:20.763Z,13.20
2017-11-23T17:57:48.270Z,13.20
2017-11-23T18:00:16.533Z,13.10
2017-11-23T18:02:44.078Z,13.10
2017-11-23T18:05:12.317Z,13.10
2017-11-23T18:07:39.839Z,13.00
2017-11-23T18:10:07.387Z,12.90
2017-11-23T18:12:34.882Z,12.90
2017-11-23T18:15:02.376Z,12.90
2017-11-23T18:17:30.675Z,12.60
2017-11-23T18:19:58.951Z,12.70
2017-11-23T18:22:26.517Z,12.70
2017-11-23T18:24:54.321Z,12.70
2017-11-23T18:27:21.836Z,12.70
2017-11-23T18:29:49.314Z,12.60
2017-11-23T18:32:17.705Z,12.50
2017-11-23T18:34:45.212Z,12.50
2017-11-23T18:37:12.729Z,12.40
2017-11-23T18:39:40.275Z,12.40
2017-11-23T18:42:07.823Z,12.50
2017-11-23T18:44:35.347Z,12.50
2017-11-23T18:47:02.966Z,12.50
2017-11-23T18:49:30.529Z,12.50
2017-11-23T18:51:58.825Z,12.30
2017-11-23T18:54:27.071Z,12.30
2017-11-23T18:56:54.630Z,12.30
2017-11-23T18:59:22.108Z,12.20
2017-11-23T19:01:49.671Z,12.30
2017-11-23T19:04:17.178Z,12.20
2017-11-23T19:06:44.681Z,12.20
2017-11-23T19:09:13.018Z,12.10
2017-11-23T19:11:40.599Z,12.10
2017-11-23T19:14:08.127Z,12.10
2017-11-23T19:16:35.648Z,12.10
2017-11-23T19:19:03.922Z,12.00
2017-11-23T19:21:31.413Z,11.90
2017-11-23T19:23:58.885Z,12.00
2017-11-23T19:26:26.471Z,12.00
2017-11-23T19:28:54.238Z,11.90
2017-11-23T19:31:21.744Z,11.90
2017-11-23T19:33:49.235Z,11.90
2017-11-23T19:36:16.857Z,11.80
2017-11-23T19:38:45.124Z,11.80
2017-11-23T19:41:12.606Z,11.80
2017-11-23T19:43:40.093Z,11.80
2017-11-23T19:46:07.662Z,11.70
2017-11-23T19:48:35.147Z,11.70
2017-11-23T19:51:02.630Z,11.70
2017-11-23T19:53:30.096Z,11.60
2017-11-23T19:55:57.606Z,11.50
2017-11-23T19:58:25.160Z,11.50
2017-11-23T20:00:52.672Z,11.40
2017-11-23T20:03:20.171Z,11.40
2017-11-23T20:05:47.731Z,11.40
2017-11-23T20:08:16.075Z,11.40
2017-11-23T20:10:43.558Z,11.50
2017-11-23T20:13:11.069Z,11.40
2017-11-23T20:15:38.577Z,11.40
2017-11-23T20:18:06.073Z,11.30
2017-11-23T20:20:33.574Z,11.20
2017-11-23T20:23:01.842Z,11.20
2017-11-23T20:25:29.398Z,11.20
2017-11-23T20:27:56.894Z,11.20
2017-11-23T20:30:24.394Z,11.20
2017-11-23T20:32:51.880Z,11.20
2017-11-23T20:35:20.124Z,11.20
2017-11-23T20:37:47.615Z,11.10
2017-11-23T20:40:15.904Z,11.10
2017-11-23T20:42:43.441Z,11.10
2017-11-23T20:45:11.730Z,11.10
2017-11-23T20:47:40.050Z,11.10
2017-11-23T20:50:08.298Z,11.10
2017-11-23T20:52:35.911Z,11.10
2017-11-23T20:55:04.178Z,11.10
2017-11-23T20:57:32.427Z,11.10
2017-11-23T20:59:59.970Z,11.10
2017-11-23T21:02:27.472Z,11.20
2017-11-23T21:04:55.037Z,11.20
2017-11-23T21:07:22.524Z,11.10
2017-11-23T21:09:50.086Z,11.20
2017-11-23T21:12:18.371Z,11.20
2017-11-23T21:14:45.855Z,11.20
2017-11-23T21:17:14.306Z,11.20
2017-11-23T21:19:42.622Z,11.20
2017-11-23T21:22:10.214Z,11.20
2017-11-23T21:24:38.454Z,11.20
2017-11-23T21:27:05.979Z,11.10
2017-11-23T21:29:33.489Z,11.10
2017-11-23T21:32:01.756Z,11.10
2017-11-23T21:34:29.332Z,11.10
2017-11-23T21:36:56.821Z,11.00
2017-11-23T21:39:24.318Z,11.00
2017-11-23T21:41:51.817Z,11.00
2017-11-23T21:44:19.832Z,11.00
2017-11-23T21:46:47.467Z,11.00
2017-11-23T21:49:15.794Z,11.00
2017-11-23T21:51:43.344Z,10.90
2017-11-23T21:54:10.828Z,10.90
2017-11-23T21:56:38.300Z,10.90
2017-11-23T21:59:05.820Z,10.90
2017-11-23T22:01:34.047Z,10.90
2017-11-23T22:04:01.563Z,10.90
2017-11-23T22:06:29.043Z,10.90
2017-11-23T22:08:56.519Z,11.00
2017-11-23T22:11:24.008Z,11.00
2017-11-23T22:13:51.516Z,11.00
2017-11-23T22:16:19.146Z,11.10
2017-11-23T22:18:47.421Z,11.20
2017-11-23T22:21:14.937Z,11.20
2017-11-23T22:23:42.410Z,11.30
2017-11-23T22:26:09.885Z,11.40
2017-11-23T22:28:37.357Z,11.40
2017-11-23T22:31:04.876Z,11.40
2017-11-23T22:33:32.506Z,11.50
2017-11-23T22:36:00.722Z,11.50
2017-11-23T22:38:28.202Z,11.50
2017-11-23T22:40:55.674Z,11.50
2017-11-23T22:43:23.945Z,11.60
2017-11-23T22:45:51.396Z,11.50
2017-11-23T22:48:18.887Z,11.60
2017-11-23T22:50:46.458Z,11.60
2017-11-23T22:53:14.043Z,11.60
2017-11-23T22:55:42.372Z,11.50
2017-11-23T22:58:10.735Z,11.50
2017-11-23T23:00:38.230Z,11.50
2017-11-23T23:03:05.710Z,11.50
2017-11-23T23:05:33.249Z,11.50
2017-11-23T23:08:00.876Z,11.50
2017-11-23T23:10:28.547Z,11.50
2017-11-23T23:12:56.037Z,11.60
2017-11-23T23:15:23.513Z,11.40
2017-11-23T23:17:51.002Z,11.40
2017-11-23T23:20:18.505Z,11.40
2017-11-23T23:22:45.996Z,11.50
2017-11-23T23:25:13.548Z,11.50
2017-11-23T23:27:41.009Z,11.50
2017-11-23T23:30:08.487Z,11.50
2017-11-23T23:32:36.002Z,11.50
2017-11-23T23:35:04.337Z,11.50
2017-11-23T23:37:31.802Z,11.50
2017-11-23T23:40:00.063Z,11.50
2017-11-23T23:42:27.540Z,11.50
2017-11-23T23:44:55.045Z,11.50
2017-11-23T23:47:22.548Z,11.50
2017-11-23T23:49:50.026Z,11.40
2017-11-23T23:52:17.511Z,11.40
2017-11-23T23:54:45.747Z,11.30
2017-11-23T23:57:13.236Z,11.30
2017-11-23T23:59:41.459Z,11.10
